Time;durP1;ratioP1;P1;durP2;ratioP2;P2;SDS_P1;SDS_P2;PMS_P1;PMS_P2;Temp;Humidity;BMP_temperature;BMP_pressure;BME280_temperature;BME280_humidity;BME280_pressure;Samples;Min_cycle;Max_cycle;Signal;HPM_P1;HPM_P2
2022/06/22 00:02:14;;;;;;;11.23;5.53;;;17.70;99.90;;;;;;5038644;28;20170;-87
2022/06/22 00:05:01;;;;;;;10.37;5.93;;;17.70;99.90;;;;;;5032587;28;20183;-86
2022/06/22 00:07:58;;;;;;;11.20;5.23;;;17.80;99.90;;;;;;5020756;28;20609;-86
2022/06/22 00:10:37;;;;;;;12.23;5.30;;;17.80;99.90;;;;;;5021295;28;20209;-86
2022/06/22 00:13:13;;;;;;;10.63;5.17;;;17.80;99.90;;;;;;5021724;28;20187;-87
2022/06/22 00:15:56;;;;;;;14.43;5.87;;;17.80;99.90;;;;;;5021217;28;20198;-86
2022/06/22 00:18:32;;;;;;;11.63;5.67;;;17.80;99.90;;;;;;5022537;28;20293;-85
2022/06/22 00:21:05;;;;;;;12.23;6.43;;;17.80;99.90;;;;;;5020787;28;20249;-86
2022/06/22 00:23:35;;;;;;;11.50;5.40;;;17.80;99.90;;;;;;5020925;28;20191;-86
2022/06/22 00:26:15;;;;;;;9.10;5.40;;;17.70;99.90;;;;;;5021985;28;20176;-85
2022/06/22 00:29:09;;;;;;;10.77;5.50;;;17.70;99.90;;;;;;5021299;28;20187;-85
2022/06/22 00:31:42;;;;;;;8.33;5.37;;;17.80;99.90;;;;;;5022191;28;20194;-86
2022/06/22 00:34:11;;;;;;;8.97;5.40;;;17.80;99.90;;;;;;5021640;28;20183;-86
2022/06/22 00:36:46;;;;;;;10.13;5.57;;;17.80;99.90;;;;;;5022515;28;20188;-85
2022/06/22 00:39:31;;;;;;;11.90;5.47;;;17.90;99.90;;;;;;5024475;28;20259;-85
2022/06/22 00:42:21;;;;;;;9.07;5.73;;;17.80;99.90;;;;;;5023770;28;20622;-85
2022/06/22 00:45:04;;;;;;;12.90;6.17;;;17.80;99.90;;;;;;5023684;28;20649;-85
2022/06/22 00:47:45;;;;;;;11.30;6.00;;;17.80;99.90;;;;;;5024114;28;20622;-86
2022/06/22 00:50:16;;;;;;;10.97;6.63;;;17.80;99.90;;;;;;5025694;28;20227;-85
2022/06/22 00:53:04;;;;;;;9.57;5.93;;;17.70;99.90;;;;;;5016972;28;20237;-85
2022/06/22 00:55:35;;;;;;;10.53;5.93;;;17.70;99.90;;;;;;5016489;28;20515;-84
2022/06/22 00:58:29;;;;;;;10.33;6.23;;;17.70;99.90;;;;;;5019148;28;20624;-85
2022/06/22 01:01:02;;;;;;;11.07;6.50;;;17.70;99.90;;;;;;5019093;28;20214;-85
2022/06/22 01:03:55;;;;;;;10.67;5.70;;;17.70;99.90;;;;;;5018697;28;20518;-85
2022/06/22 01:07:04;;;;;;;12.87;6.00;;;17.70;99.90;;;;;;5017872;28;20182;-84
2022/06/22 01:09:48;;;;;;;9.83;6.17;;;17.70;99.90;;;;;;5024605;28;20250;-84
2022/06/22 01:12:28;;;;;;;11.63;6.40;;;17.60;99.90;;;;;;5027030;28;20186;-85
2022/06/22 01:15:13;;;;;;;13.83;6.60;;;17.60;99.90;;;;;;5041787;28;20188;-85
2022/06/22 01:18:07;;;;;;;13.40;7.70;;;17.60;99.90;;;;;;5032683;28;20188;-86
2022/06/22 01:20:52;;;;;;;12.63;7.13;;;17.60;99.90;;;;;;5028354;28;20245;-86
2022/06/22 01:23:42;;;;;;;12.33;7.43;;;17.60;99.90;;;;;;5027156;28;20175;-86
2022/06/22 01:26:46;;;;;;;11.63;7.53;;;17.60;99.90;;;;;;5027205;28;20234;-86
2022/06/22 01:29:25;;;;;;;15.13;8.23;;;17.50;99.90;;;;;;5028373;28;20277;-86
2022/06/22 01:31:54;;;;;;;12.63;8.13;;;17.60;99.90;;;;;;5029722;28;20176;-86
2022/06/22 01:34:20;;;;;;;12.63;7.90;;;17.50;99.90;;;;;;5032545;28;20243;-85
2022/06/22 01:36:46;;;;;;;14.47;7.60;;;17.50;99.90;;;;;;5034580;28;20188;-85
2022/06/22 01:39:13;;;;;;;13.70;7.37;;;17.50;99.90;;;;;;5029649;28;20214;-85
2022/06/22 01:41:57;;;;;;;13.77;7.27;;;17.50;99.90;;;;;;5025099;28;20199;-85
2022/06/22 01:44:40;;;;;;;11.53;6.00;;;17.50;99.90;;;;;;5025077;28;20229;-85
2022/06/22 01:47:39;;;;;;;12.93;5.60;;;17.40;99.90;;;;;;5024248;28;20319;-84
2022/06/22 01:50:14;;;;;;;14.77;6.03;;;17.40;99.90;;;;;;5023543;28;20329;-85
2022/06/22 01:52:46;;;;;;;10.37;5.17;;;17.40;99.90;;;;;;5024449;28;20180;-85
2022/06/22 01:55:33;;;;;;;11.33;5.27;;;17.30;99.90;;;;;;5026176;28;20183;-85
2022/06/22 01:58:06;;;;;;;8.27;5.40;;;17.40;99.90;;;;;;5026594;28;20175;-85
2022/06/22 02:00:32;;;;;;;12.33;5.07;;;17.40;99.90;;;;;;5025451;28;20203;-85
2022/06/22 02:03:13;;;;;;;13.40;5.57;;;17.50;99.90;;;;;;5025819;28;20202;-85
2022/06/22 02:05:52;;;;;;;9.20;5.33;;;17.40;99.90;;;;;;5024330;28;20243;-85
2022/06/22 02:08:33;;;;;;;13.00;5.67;;;17.50;99.90;;;;;;5022828;28;20161;-85
2022/06/22 02:11:08;;;;;;;10.50;6.53;;;17.40;99.90;;;;;;5026084;28;20192;-85
2022/06/22 02:13:37;;;;;;;10.27;5.77;;;17.40;99.90;;;;;;5024533;28;20221;-86
2022/06/22 02:16:25;;;;;;;10.17;5.27;;;17.40;99.90;;;;;;5024989;28;20203;-87
2022/06/22 02:18:56;;;;;;;12.20;5.30;;;17.20;99.90;;;;;;5023290;28;20208;-86
2022/06/22 02:21:43;;;;;;;9.13;4.77;;;17.20;99.90;;;;;;5022905;28;20356;-86
2022/06/22 02:24:27;;;;;;;13.50;5.10;;;17.20;99.90;;;;;;5022547;28;20176;-86
2022/06/22 02:26:57;;;;;;;11.03;5.23;;;17.10;99.90;;;;;;5024244;28;20179;-85
2022/06/22 02:29:31;;;;;;;12.90;5.10;;;17.10;99.90;;;;;;5022527;28;20195;-86
2022/06/22 02:32:00;;;;;;;13.07;5.47;;;17.00;99.90;;;;;;5023691;28;20181;-85
2022/06/22 02:34:27;;;;;;;7.97;4.27;;;17.00;99.90;;;;;;5021766;28;20213;-86
2022/06/22 02:36:54;;;;;;;13.53;4.73;;;17.00;99.90;;;;;;5022375;28;20625;-86
2022/06/22 02:39:24;;;;;;;7.83;4.17;;;16.90;99.90;;;;;;5022172;28;20210;-86
2022/06/22 02:44:41;;;;;;;9.23;4.07;;;16.90;99.90;;;;;;5024677;28;20171;-86
2022/06/22 02:47:29;;;;;;;14.00;4.43;;;16.90;99.90;;;;;;5021358;28;20175;-87
2022/06/22 02:50:15;;;;;;;11.20;4.67;;;16.80;99.90;;;;;;5021768;28;20206;-87
2022/06/22 02:52:57;;;;;;;6.10;3.50;;;16.80;99.90;;;;;;5022675;28;20174;-87
2022/06/22 02:55:27;;;;;;;11.60;4.40;;;16.80;99.90;;;;;;5021545;28;20186;-87
2022/06/22 02:57:53;;;;;;;7.93;4.00;;;16.80;99.90;;;;;;5022499;28;20175;-90
2022/06/22 03:00:33;;;;;;;14.13;3.87;;;16.80;99.90;;;;;;5021255;28;20269;-87
2022/06/22 03:03:06;;;;;;;11.23;4.10;;;16.80;99.90;;;;;;5024513;28;20234;-87
2022/06/22 03:05:34;;;;;;;14.00;4.13;;;16.70;99.90;;;;;;5026332;28;20171;-87
2022/06/22 03:08:02;;;;;;;9.83;3.87;;;16.80;99.90;;;;;;5026801;28;20247;-87
2022/06/22 03:10:54;;;;;;;12.10;3.77;;;16.80;99.90;;;;;;5021116;28;20203;-85
2022/06/22 03:13:25;;;;;;;11.80;3.60;;;16.80;99.90;;;;;;5018898;28;20189;-87
2022/06/22 03:15:52;;;;;;;8.90;3.60;;;16.80;99.90;;;;;;5023050;28;20198;-86
2022/06/22 03:18:26;;;;;;;8.97;4.53;;;16.80;99.90;;;;;;5025469;28;20613;-87
2022/06/22 03:21:11;;;;;;;10.23;4.20;;;16.80;99.90;;;;;;5034941;28;20191;-87
2022/06/22 03:23:44;;;;;;;11.80;3.87;;;16.80;99.90;;;;;;5038200;28;20175;-88
2022/06/22 03:26:12;;;;;;;11.43;3.93;;;16.80;99.90;;;;;;5019048;28;20171;-90
2022/06/22 03:28:50;;;;;;;11.20;3.87;;;16.80;99.90;;;;;;5020474;28;20197;-89
2022/06/22 03:31:27;;;;;;;13.37;3.33;;;16.70;99.90;;;;;;5021184;28;20242;-87
2022/06/22 03:34:10;;;;;;;8.83;3.90;;;16.80;99.90;;;;;;5021721;28;20179;-87
2022/06/22 03:37:00;;;;;;;11.30;3.77;;;16.70;99.90;;;;;;5021198;28;20179;-88
2022/06/22 03:39:30;;;;;;;8.80;3.93;;;16.70;99.90;;;;;;5021033;28;20230;-87
2022/06/22 03:42:05;;;;;;;10.87;3.97;;;16.80;99.90;;;;;;5023111;28;20172;-86
2022/06/22 03:44:52;;;;;;;7.47;3.27;;;16.80;99.90;;;;;;5023458;28;20193;-87
2022/06/22 03:47:43;;;;;;;9.13;3.67;;;16.80;99.90;;;;;;5025688;28;20174;-86
2022/06/22 03:50:15;;;;;;;6.67;3.67;;;16.80;99.90;;;;;;5023828;28;20207;-87
2022/06/22 03:52:47;;;;;;;13.37;4.23;;;16.80;99.90;;;;;;5022808;28;20175;-86
2022/06/22 03:55:27;;;;;;;8.03;4.23;;;16.80;99.90;;;;;;5023055;28;20265;-86
2022/06/22 03:57:55;;;;;;;8.77;3.57;;;16.80;99.90;;;;;;5023602;28;20190;-86
2022/06/22 04:00:22;;;;;;;15.97;3.60;;;16.80;99.90;;;;;;5023522;28;20210;-87
2022/06/22 04:02:48;;;;;;;13.87;4.37;;;16.80;99.90;;;;;;5023174;28;20189;-87
2022/06/22 04:05:20;;;;;;;10.43;3.97;;;16.80;99.90;;;;;;5021838;28;20537;-87
2022/06/22 04:07:47;;;;;;;14.57;4.47;;;16.80;99.90;;;;;;5022200;28;20168;-87
2022/06/22 04:10:44;;;;;;;14.30;3.77;;;16.90;99.90;;;;;;5021627;28;20588;-87
2022/06/22 04:13:41;;;;;;;9.80;3.73;;;16.90;99.90;;;;;;5021990;28;20214;-87
2022/06/22 04:16:15;;;;;;;12.27;3.37;;;16.90;99.90;;;;;;5022138;28;20202;-87
2022/06/22 04:19:04;;;;;;;15.17;4.07;;;16.90;99.90;;;;;;5022321;28;20197;-87
2022/06/22 04:21:34;;;;;;;10.37;3.67;;;16.90;99.90;;;;;;5023086;28;20175;-86
2022/06/22 04:24:16;;;;;;;10.97;4.40;;;17.00;99.90;;;;;;5023239;28;20179;-87
2022/06/22 04:26:58;;;;;;;11.13;4.13;;;17.10;99.90;;;;;;5025181;28;20170;-87
2022/06/22 04:29:44;;;;;;;7.67;3.70;;;17.10;99.90;;;;;;5025014;28;20195;-87
2022/06/22 04:32:29;;;;;;;9.73;3.83;;;17.20;99.90;;;;;;5027703;28;20293;-87
2022/06/22 04:35:25;;;;;;;9.70;3.97;;;17.20;99.90;;;;;;5031815;28;20163;-87
2022/06/22 04:38:12;;;;;;;11.10;4.27;;;17.30;99.90;;;;;;5029262;28;20234;-87
2022/06/22 04:40:56;;;;;;;8.27;3.70;;;17.30;99.90;;;;;;5035479;28;20202;-87
2022/06/22 04:43:22;;;;;;;8.93;3.90;;;17.30;99.90;;;;;;5036866;28;20171;-86
2022/06/22 04:45:49;;;;;;;9.53;3.87;;;17.30;99.90;;;;;;5028438;28;20177;-87
2022/06/22 04:48:20;;;;;;;10.17;4.07;;;17.40;99.90;;;;;;5024689;28;20231;-86
2022/06/22 04:50:49;;;;;;;11.33;4.20;;;17.50;99.90;;;;;;5022961;28;20303;-86
2022/06/22 04:53:34;;;;;;;11.33;3.83;;;17.50;99.90;;;;;;5021428;28;20199;-86
2022/06/22 04:56:09;;;;;;;8.87;3.70;;;17.60;99.90;;;;;;5021340;28;20187;-86
2022/06/22 04:58:53;;;;;;;10.17;3.80;;;17.70;99.90;;;;;;5020316;28;20549;-86
2022/06/22 05:01:37;;;;;;;9.60;3.30;;;17.70;99.90;;;;;;5020481;28;20234;-86
2022/06/22 05:04:13;;;;;;;8.57;4.40;;;17.80;99.90;;;;;;5020720;28;20207;-86
2022/06/22 05:06:54;;;;;;;11.27;3.77;;;17.80;99.90;;;;;;5022088;28;20164;-86
2022/06/22 05:09:56;;;;;;;11.87;4.43;;;17.90;99.90;;;;;;5020968;28;20205;-85
2022/06/22 05:12:25;;;;;;;11.83;4.37;;;17.90;99.90;;;;;;5021964;28;20559;-86
2022/06/22 05:14:54;;;;;;;8.43;3.37;;;18.00;99.90;;;;;;5020906;28;20198;-86
2022/06/22 05:17:31;;;;;;;11.30;3.60;;;18.00;99.90;;;;;;4995162;28;20280;-85
2022/06/22 05:20:27;;;;;;;10.37;3.37;;;18.00;99.90;;;;;;4998675;28;20209;-86
2022/06/22 05:22:56;;;;;;;11.07;4.10;;;18.00;99.90;;;;;;5001218;28;20177;-85
2022/06/22 05:25:22;;;;;;;15.10;4.37;;;18.10;99.90;;;;;;5002724;28;20205;-84
2022/06/22 05:27:59;;;;;;;12.47;4.20;;;18.10;99.90;;;;;;5016117;28;20195;-86
2022/06/22 05:30:25;;;;;;;10.23;3.80;;;18.20;99.90;;;;;;5019538;28;20255;-85
2022/06/22 05:32:55;;;;;;;8.57;3.23;;;18.30;99.90;;;;;;5000056;28;20251;-85
2022/06/22 05:35:29;;;;;;;8.10;3.70;;;18.30;99.90;;;;;;4999848;28;20179;-85
2022/06/22 05:37:59;;;;;;;9.50;3.20;;;18.40;99.90;;;;;;4999765;28;20179;-86
2022/06/22 05:40:28;;;;;;;8.23;3.23;;;18.50;99.90;;;;;;4999109;28;20302;-87
2022/06/22 05:42:55;;;;;;;8.40;3.17;;;18.50;99.90;;;;;;5000216;28;20185;-87
2022/06/22 05:46:02;;;;;;;8.67;3.53;;;18.50;99.90;;;;;;5002090;28;20179;-85
2022/06/22 05:48:29;;;;;;;7.90;3.97;;;18.50;99.90;;;;;;5003490;28;20215;-85
2022/06/22 05:51:17;;;;;;;10.90;3.80;;;18.60;99.90;;;;;;4999969;28;20575;-86
2022/06/22 05:53:43;;;;;;;11.43;4.77;;;18.50;99.90;;;;;;5002086;28;20215;-87
2022/06/22 05:56:22;;;;;;;10.03;3.43;;;18.60;99.90;;;;;;5000682;28;20296;-85
2022/06/22 05:58:57;;;;;;;11.23;3.60;;;18.50;99.90;;;;;;4998621;28;20654;-84
2022/06/22 06:01:41;;;;;;;9.37;3.83;;;18.50;99.90;;;;;;4998793;28;20201;-84
2022/06/22 06:04:09;;;;;;;9.53;3.90;;;18.60;99.90;;;;;;5000231;28;20221;-85
2022/06/22 06:06:40;;;;;;;10.33;3.60;;;18.60;99.90;;;;;;4999401;28;20202;-85
2022/06/22 06:09:19;;;;;;;8.47;3.50;;;18.60;99.90;;;;;;4999305;28;20240;-85
2022/06/22 06:11:55;;;;;;;15.83;4.50;;;18.60;99.90;;;;;;5003479;28;20180;-88
2022/06/22 06:14:27;;;;;;;10.83;3.97;;;18.60;99.90;;;;;;5008688;28;20205;-87
2022/06/22 06:16:56;;;;;;;10.33;3.77;;;18.70;99.90;;;;;;5006207;28;20303;-88
2022/06/22 06:19:28;;;;;;;13.20;4.40;;;18.90;99.90;;;;;;5007621;28;20224;-88
2022/06/22 06:21:57;;;;;;;6.60;3.20;;;18.90;99.90;;;;;;5008703;28;20271;-88
2022/06/22 06:24:29;;;;;;;14.77;4.40;;;19.00;99.90;;;;;;5003256;28;20185;-88
2022/06/22 06:30:23;;;;;;;13.10;3.80;;;19.20;99.90;;;;;;5004632;28;20212;-88
2022/06/22 06:32:51;;;;;;;9.60;3.37;;;19.20;99.90;;;;;;5003283;28;20259;-87
2022/06/22 06:35:40;;;;;;;8.93;3.40;;;19.20;99.90;;;;;;5003225;28;20193;-88
2022/06/22 06:38:15;;;;;;;8.30;4.13;;;19.30;99.90;;;;;;5007638;28;20181;-88
2022/06/22 06:40:55;;;;;;;16.63;4.20;;;19.30;99.90;;;;;;5010106;28;20210;-88
2022/06/22 06:43:46;;;;;;;9.80;3.53;;;19.40;99.90;;;;;;5002927;28;20277;-88
2022/06/22 06:46:21;;;;;;;16.13;4.63;;;19.40;99.90;;;;;;5001508;28;20176;-88
2022/06/22 06:49:00;;;;;;;9.80;3.97;;;19.40;99.90;;;;;;5000752;28;20177;-87
2022/06/22 06:51:30;;;;;;;18.30;4.40;;;19.40;99.90;;;;;;5001051;28;20177;-87
2022/06/22 06:54:21;;;;;;;17.40;3.60;;;19.40;99.90;;;;;;5000231;28;20184;-88
2022/06/22 06:57:01;;;;;;;9.07;3.80;;;19.40;99.90;;;;;;5002151;28;20182;-87
2022/06/22 06:59:29;;;;;;;10.00;3.77;;;19.40;99.90;;;;;;5001680;28;20220;-88
2022/06/22 07:02:02;;;;;;;10.73;3.40;;;19.40;99.90;;;;;;5001405;28;20182;-87
2022/06/22 07:04:33;;;;;;;9.07;3.80;;;19.40;99.90;;;;;;5001644;28;20174;-88
2022/06/22 07:07:36;;;;;;;10.13;3.57;;;19.40;99.90;;;;;;5003064;28;20188;-88
2022/06/22 07:10:40;;;;;;;12.87;4.13;;;19.50;99.90;;;;;;5001888;28;20209;-87
2022/06/22 07:13:13;;;;;;;8.53;3.70;;;19.50;99.90;;;;;;5002993;28;20232;-88
2022/06/22 07:15:44;;;;;;;12.43;3.43;;;19.40;99.90;;;;;;5000833;28;20248;-88
2022/06/22 07:18:30;;;;;;;9.90;3.83;;;19.50;99.90;;;;;;4999903;28;20176;-87
2022/06/22 07:21:34;;;;;;;9.73;3.93;;;19.60;99.90;;;;;;4999164;28;20296;-88
2022/06/22 07:24:19;;;;;;;11.67;3.90;;;19.60;99.90;;;;;;4997911;28;20531;-87
2022/06/22 07:26:56;;;;;;;12.30;3.47;;;19.60;99.90;;;;;;4997559;28;20699;-87
2022/06/22 07:29:50;;;;;;;12.47;4.00;;;19.70;99.90;;;;;;4996695;28;20205;-86
2022/06/22 07:32:39;;;;;;;15.60;4.13;;;19.80;99.90;;;;;;4997566;28;20254;-87
2022/06/22 07:35:14;;;;;;;11.27;4.10;;;19.80;99.90;;;;;;5013946;28;20173;-88
2022/06/22 07:37:46;;;;;;;10.27;3.13;;;19.90;99.90;;;;;;5018099;28;20204;-88
2022/06/22 07:40:21;;;;;;;11.33;3.53;;;19.90;99.90;;;;;;5000575;28;20220;-87
2022/06/22 07:42:49;;;;;;;8.27;3.20;;;19.90;99.90;;;;;;5000235;28;20179;-88
2022/06/22 07:45:18;;;;;;;10.83;3.50;;;19.90;99.90;;;;;;5000730;28;20211;-88
2022/06/22 07:48:01;;;;;;;7.47;3.60;;;20.00;99.90;;;;;;5000768;28;20180;-88
2022/06/22 07:50:48;;;;;;;15.27;4.07;;;20.00;99.90;;;;;;5005832;28;20294;-88
2022/06/22 07:53:22;;;;;;;10.57;3.87;;;20.00;99.90;;;;;;5005877;28;20184;-88
2022/06/22 07:56:09;;;;;;;12.33;4.90;;;20.00;99.90;;;;;;5008629;28;20528;-87
2022/06/22 07:59:17;;;;;;;8.20;3.77;;;20.00;99.90;;;;;;5004925;28;20262;-88
2022/06/22 08:01:45;;;;;;;12.53;3.93;;;19.90;99.90;;;;;;4998853;28;20266;-88
2022/06/22 08:04:19;;;;;;;13.90;4.10;;;19.90;99.90;;;;;;5000425;28;20234;-88
2022/06/22 08:07:00;;;;;;;11.13;4.70;;;19.90;99.90;;;;;;5000977;28;20190;-88
2022/06/22 08:09:41;;;;;;;13.27;4.17;;;19.90;99.90;;;;;;5005498;28;20204;-87
2022/06/22 08:12:35;;;;;;;9.97;3.80;;;19.90;99.90;;;;;;4999412;28;20214;-87
2022/06/22 08:15:06;;;;;;;11.57;3.90;;;19.90;99.90;;;;;;4999680;28;20554;-87
2022/06/22 08:17:50;;;;;;;10.70;3.43;;;19.90;99.90;;;;;;4998960;28;20671;-87
2022/06/22 08:20:31;;;;;;;7.63;3.50;;;20.00;99.90;;;;;;5000704;28;20207;-87
2022/06/22 08:22:58;;;;;;;12.63;4.40;;;20.00;99.90;;;;;;4999398;28;20179;-87
2022/06/22 08:25:24;;;;;;;11.03;3.70;;;20.10;99.90;;;;;;4999809;28;20187;-88
2022/06/22 08:27:52;;;;;;;14.27;4.87;;;20.10;99.90;;;;;;4998503;28;20186;-87
2022/06/22 08:30:19;;;;;;;10.20;3.90;;;20.20;99.90;;;;;;4996929;28;20323;-88
2022/06/22 08:32:48;;;;;;;13.80;4.30;;;20.30;99.90;;;;;;4997017;28;20194;-87
2022/06/22 08:35:25;;;;;;;7.97;3.90;;;20.30;99.90;;;;;;4996748;28;20278;-87
2022/06/22 08:38:07;;;;;;;10.40;4.00;;;20.40;99.90;;;;;;4996213;28;20191;-87
2022/06/22 08:40:45;;;;;;;14.80;4.20;;;20.50;99.90;;;;;;4999716;28;20704;-88
2022/06/22 08:43:38;;;;;;;14.07;3.87;;;20.50;99.90;;;;;;4999794;28;20184;-87
2022/06/22 08:46:10;;;;;;;17.10;4.60;;;20.50;99.90;;;;;;5000305;28;20303;-88
2022/06/22 08:48:47;;;;;;;12.00;4.00;;;20.50;99.90;;;;;;4999786;28;20243;-88
2022/06/22 08:51:57;;;;;;;9.23;4.03;;;20.50;99.90;;;;;;5001111;28;20196;-87
2022/06/22 08:54:44;;;;;;;13.13;4.30;;;20.50;99.90;;;;;;5008526;28;20237;-88
2022/06/22 08:57:28;;;;;;;9.30;4.27;;;20.50;99.90;;;;;;5000116;28;20176;-88
2022/06/22 09:00:18;;;;;;;12.60;4.73;;;20.50;99.90;;;;;;5001932;28;20626;-87
2022/06/22 09:02:44;;;;;;;16.03;5.23;;;20.60;99.90;;;;;;5001065;28;20545;-88
2022/06/22 09:05:15;;;;;;;11.40;3.90;;;20.60;99.90;;;;;;5000414;28;20275;-88
2022/06/22 09:07:47;;;;;;;9.27;4.10;;;20.60;99.90;;;;;;5000013;28;20180;-88
2022/06/22 09:10:48;;;;;;;10.27;4.53;;;20.70;99.90;;;;;;5000687;28;20200;-88
2022/06/22 09:13:28;;;;;;;15.50;4.80;;;20.70;99.90;;;;;;5000565;28;20556;-88
2022/06/22 09:16:03;;;;;;;10.17;4.33;;;20.70;99.90;;;;;;5000478;28;20194;-87
2022/06/22 09:19:06;;;;;;;11.73;4.67;;;20.70;99.90;;;;;;5003632;28;20185;-88
2022/06/22 09:22:09;;;;;;;16.13;4.73;;;20.70;99.90;;;;;;5004540;28;20192;-88
2022/06/22 09:24:53;;;;;;;10.77;4.40;;;20.70;99.90;;;;;;5005265;28;20188;-89
2022/06/22 09:27:26;;;;;;;12.20;4.33;;;20.60;99.90;;;;;;5004873;28;20205;-88
2022/06/22 09:30:29;;;;;;;8.37;4.10;;;20.60;99.90;;;;;;5009467;28;20300;-87
2022/06/22 09:33:35;;;;;;;14.53;5.30;;;20.60;99.90;;;;;;5011899;28;20192;-88
2022/06/22 09:36:29;;;;;;;16.23;4.40;;;20.50;99.90;;;;;;5006862;28;20214;-87
2022/06/22 09:38:54;;;;;;;14.50;5.27;;;20.40;99.90;;;;;;5000642;28;20198;-90
2022/06/22 09:41:41;;;;;;;12.33;5.37;;;20.40;99.90;;;;;;5014792;28;20205;-90
2022/06/22 09:44:22;;;;;;;13.20;6.00;;;20.30;99.90;;;;;;5020412;28;20207;-89
2022/06/22 09:47:12;;;;;;;16.07;5.97;;;20.30;99.90;;;;;;5001427;28;20196;-88
2022/06/22 09:49:46;;;;;;;11.30;5.57;;;20.20;99.90;;;;;;5001706;28;20201;-89
2022/06/22 09:52:43;;;;;;;18.03;7.30;;;20.10;99.90;;;;;;5005651;28;20165;-89
2022/06/22 09:59:10;;;;;;;13.77;6.37;;;20.00;99.90;;;;;;5021070;28;20172;-90
2022/06/22 10:01:51;;;;;;;20.70;7.20;;;19.90;99.90;;;;;;5023032;28;20200;-89
2022/06/22 10:04:42;;;;;;;14.90;6.17;;;19.90;99.90;;;;;;5032555;28;20186;-89
2022/06/22 10:07:33;;;;;;;14.40;7.10;;;19.80;99.90;;;;;;5017056;28;20205;-90
2022/06/22 10:10:05;;;;;;;10.47;5.93;;;19.60;99.90;;;;;;5018170;28;20254;-89
2022/06/22 10:12:55;;;;;;;16.63;6.23;;;19.60;99.90;;;;;;5019637;28;20182;-89
2022/06/22 10:15:43;;;;;;;11.87;6.33;;;19.60;99.90;;;;;;5002314;28;20294;-89
2022/06/22 10:18:30;;;;;;;11.07;5.67;;;19.60;99.90;;;;;;4999789;28;20214;-88
2022/06/22 10:21:33;;;;;;;14.40;6.40;;;19.50;99.90;;;;;;4999912;28;20216;-89
2022/06/22 10:24:19;;;;;;;16.80;6.23;;;19.50;99.90;;;;;;5001197;28;20171;-88
2022/06/22 10:27:21;;;;;;;10.90;5.50;;;19.40;99.90;;;;;;5002634;28;20172;-88
2022/06/22 10:30:15;;;;;;;11.23;4.73;;;19.50;99.90;;;;;;4999693;28;20238;-88
2022/06/22 10:32:57;;;;;;;14.67;5.50;;;19.40;99.90;;;;;;5003032;28;20178;-88
2022/06/22 10:35:23;;;;;;;15.27;4.93;;;19.50;99.90;;;;;;5002810;28;20184;-88
2022/06/22 10:37:52;;;;;;;12.13;5.00;;;19.50;99.90;;;;;;5001330;28;20207;-89
2022/06/22 10:46:14;;;;;;;10.17;4.73;;;19.40;99.90;;;;;;5003746;28;20171;-88
2022/06/22 10:48:56;;;;;;;11.90;5.20;;;19.40;99.90;;;;;;5002142;28;20164;-88
2022/06/22 10:51:27;;;;;;;12.70;5.40;;;19.30;99.90;;;;;;5001241;28;20177;-89
2022/06/22 10:54:14;;;;;;;12.60;5.60;;;19.40;99.90;;;;;;5001847;28;20186;-86
2022/06/22 10:56:57;;;;;;;9.90;5.07;;;19.40;99.90;;;;;;5005599;28;20170;-88
2022/06/22 10:59:46;;;;;;;12.03;5.13;;;19.40;99.90;;;;;;5004957;28;20239;-88
2022/06/22 11:02:27;;;;;;;15.57;5.53;;;19.40;99.90;;;;;;5004182;28;20181;-88
2022/06/22 11:05:19;;;;;;;12.37;6.07;;;19.50;99.90;;;;;;5003837;28;20184;-87
2022/06/22 11:08:21;;;;;;;13.80;6.40;;;19.40;99.90;;;;;;5004895;28;20179;-88
2022/06/22 11:11:09;;;;;;;16.37;7.80;;;19.50;99.90;;;;;;5003940;28;20255;-87
2022/06/22 11:14:18;;;;;;;19.43;8.20;;;19.60;99.90;;;;;;5002202;28;20236;-88
2022/06/22 11:16:53;;;;;;;13.63;6.47;;;19.60;99.90;;;;;;5000913;28;20188;-87
2022/06/22 11:19:53;;;;;;;19.77;11.43;;;19.60;99.90;;;;;;5001976;28;20215;-86
2022/06/22 11:22:46;;;;;;;29.20;19.20;;;19.70;99.90;;;;;;5001497;28;20591;-87
2022/06/22 11:31:33;;;;;;;17.60;8.93;;;20.00;99.90;;;;;;5002459;28;20328;-87
2022/06/22 11:34:11;;;;;;;19.33;5.90;;;20.20;99.90;;;;;;5000034;28;20210;-86
2022/06/22 11:36:49;;;;;;;11.27;4.03;;;20.30;99.90;;;;;;4999331;28;20179;-87
2022/06/22 11:39:15;;;;;;;10.43;3.90;;;20.40;99.90;;;;;;4999624;28;20235;-87
2022/06/22 11:41:43;;;;;;;11.50;3.43;;;20.50;99.90;;;;;;4996915;28;20198;-87
2022/06/22 11:44:33;;;;;;;16.17;4.00;;;20.50;99.90;;;;;;4996631;28;20217;-86
2022/06/22 11:47:19;;;;;;;11.43;3.73;;;20.50;99.90;;;;;;5002657;28;20178;-86
2022/06/22 11:50:08;;;;;;;14.50;3.40;;;20.40;99.90;;;;;;5018373;28;20218;-84
2022/06/22 11:53:03;;;;;;;13.27;3.67;;;20.40;99.90;;;;;;5009047;28;20184;-87
2022/06/22 11:55:44;;;;;;;12.70;3.37;;;20.40;99.90;;;;;;5000734;28;20183;-88
2022/06/22 11:58:28;;;;;;;19.37;3.80;;;20.50;99.90;;;;;;4999910;28;20167;-88
2022/06/22 12:01:20;;;;;;;10.07;3.50;;;20.80;99.90;;;;;;4999142;28;20666;-88
2022/06/22 12:04:24;;;;;;;16.40;3.77;;;21.00;99.90;;;;;;5003080;28;20715;-88
2022/06/22 12:07:00;;;;;;;13.87;3.50;;;21.10;99.90;;;;;;5000936;28;20202;-88
2022/06/22 12:09:56;;;;;;;10.83;3.40;;;21.10;99.90;;;;;;5000456;28;20195;-88
2022/06/22 12:12:34;;;;;;;11.40;3.67;;;21.00;99.90;;;;;;4999770;28;20176;-88
2022/06/22 12:15:19;;;;;;;15.57;4.80;;;20.80;99.90;;;;;;4999880;28;20191;-88
2022/06/22 12:18:06;;;;;;;9.10;3.50;;;20.70;99.90;;;;;;5001027;28;20189;-86
2022/06/22 12:20:41;;;;;;;10.03;3.47;;;20.60;99.90;;;;;;5001703;28;20215;-88
2022/06/22 12:23:51;;;;;;;7.03;3.47;;;20.60;99.90;;;;;;5003752;28;20181;-87
2022/06/22 12:26:17;;;;;;;7.77;3.60;;;20.60;99.90;;;;;;5000897;28;20637;-88
2022/06/22 12:29:10;;;;;;;11.93;5.03;;;20.60;99.90;;;;;;5016443;28;20188;-85
2022/06/22 12:31:52;;;;;;;25.67;11.20;;;20.60;99.90;;;;;;5001356;28;20212;-85
2022/06/22 12:34:29;;;;;;;24.93;14.10;;;20.60;99.90;;;;;;5001907;28;20511;-86
2022/06/22 12:37:05;;;;;;;21.97;9.90;;;20.60;99.90;;;;;;4999534;28;20179;-87
2022/06/22 12:39:42;;;;;;;21.27;5.40;;;20.50;99.90;;;;;;4999074;28;20627;-86
2022/06/22 12:42:46;;;;;;;19.87;5.77;;;20.50;99.90;;;;;;5000996;28;20205;-87
2022/06/22 12:45:23;;;;;;;9.63;4.73;;;20.50;99.90;;;;;;5000468;28;20179;-86
2022/06/22 12:48:07;;;;;;;11.30;4.77;;;20.60;99.90;;;;;;5000311;28;20176;-88
2022/06/22 12:51:08;;;;;;;10.83;5.77;;;20.50;99.90;;;;;;5000467;28;20452;-85
2022/06/22 12:53:58;;;;;;;9.37;4.80;;;20.50;99.90;;;;;;5005797;28;20223;-84
2022/06/22 12:56:28;;;;;;;13.40;5.73;;;20.60;99.90;;;;;;5005046;28;20187;-85
2022/06/22 12:58:57;;;;;;;12.93;4.67;;;20.60;99.90;;;;;;5004890;28;20256;-84
2022/06/22 13:01:23;;;;;;;12.87;4.60;;;20.60;99.90;;;;;;5002564;28;20622;-84
2022/06/22 13:04:12;;;;;;;12.07;4.33;;;20.60;99.90;;;;;;5003228;28;20175;-84
2022/06/22 13:06:44;;;;;;;13.33;4.73;;;20.60;99.90;;;;;;5006070;28;20185;-85
2022/06/22 13:09:09;;;;;;;13.13;5.97;;;20.60;99.90;;;;;;5002585;28;20632;-84
2022/06/22 13:11:36;;;;;;;19.07;4.40;;;20.50;99.90;;;;;;5003578;28;20180;-84
2022/06/22 13:14:21;;;;;;;12.23;4.50;;;20.40;99.90;;;;;;5004265;28;20202;-86
2022/06/22 13:17:22;;;;;;;12.57;4.00;;;20.30;99.90;;;;;;5002580;28;20249;-84
2022/06/22 13:20:21;;;;;;;15.27;4.77;;;20.20;99.90;;;;;;5002706;28;20237;-87
2022/06/22 13:23:04;;;;;;;10.27;3.73;;;20.10;99.90;;;;;;5002127;28;20203;-87
2022/06/22 13:25:30;;;;;;;13.23;5.30;;;20.20;99.90;;;;;;5001669;28;20175;-88
2022/06/22 13:28:01;;;;;;;11.27;4.13;;;20.10;99.90;;;;;;5001610;28;20272;-87
2022/06/22 13:30:42;;;;;;;15.90;4.60;;;20.20;99.90;;;;;;5001863;28;20209;-87
2022/06/22 13:33:23;;;;;;;12.23;4.20;;;20.30;99.90;;;;;;5002048;28;20234;-87
2022/06/22 13:36:13;;;;;;;10.93;4.90;;;20.40;99.90;;;;;;5003790;28;20173;-87
2022/06/22 13:38:51;;;;;;;12.97;4.73;;;20.40;99.90;;;;;;5002843;28;20220;-87
2022/06/22 13:41:39;;;;;;;12.73;5.40;;;20.50;99.90;;;;;;5002385;28;20298;-87
2022/06/22 13:44:32;;;;;;;21.27;5.23;;;20.60;99.90;;;;;;5003776;28;20186;-87
2022/06/22 13:47:35;;;;;;;14.03;4.07;;;20.70;99.90;;;;;;5004643;28;20170;-87
2022/06/22 13:50:52;;;;;;;9.17;3.70;;;20.80;99.90;;;;;;5004308;28;20193;-88
2022/06/22 13:53:32;;;;;;;13.77;4.73;;;21.00;99.90;;;;;;5002847;28;20184;-87
2022/06/22 13:56:01;;;;;;;19.43;6.70;;;21.00;99.90;;;;;;5011013;28;20254;-87
2022/06/22 13:58:41;;;;;;;15.30;4.87;;;21.10;99.90;;;;;;5009286;28;20553;-84
2022/06/22 14:01:21;;;;;;;14.00;5.17;;;21.10;99.90;;;;;;5020757;28;20314;-87
2022/06/22 14:03:58;;;;;;;13.87;5.07;;;21.10;99.90;;;;;;5007671;28;20238;-87
2022/06/22 14:06:26;;;;;;;14.87;4.47;;;21.10;99.90;;;;;;5002973;28;20183;-88
2022/06/22 14:09:26;;;;;;;17.30;4.53;;;21.10;99.90;;;;;;5001377;28;20247;-87